createdAt,value
2022-08-11T00:01:59.337Z,18.00
2022-08-11T00:07:04.090Z,17.90
2022-08-11T00:12:14.826Z,17.60
2022-08-11T00:17:18.290Z,17.40
2022-08-11T00:22:22.146Z,17.40
2022-08-11T00:27:34.677Z,17.30
2022-08-11T00:32:38.407Z,17.40
2022-08-11T00:37:42.841Z,17.50
2022-08-11T00:42:59.931Z,17.40
2022-08-11T00:48:09.711Z,17.10
2022-08-11T00:53:47.863Z,16.90
2022-08-11T00:59:36.688Z,16.90
2022-08-11T01:05:18.077Z,16.80
2022-08-11T01:10:54.814Z,16.50
2022-08-11T01:16:14.234Z,16.30
2022-08-11T01:21:57.171Z,16.20
2022-08-11T01:27:47.288Z,16.10
2022-08-11T01:33:44.123Z,16.00
2022-08-11T01:39:26.315Z,15.90
2022-08-11T01:45:18.376Z,15.80
2022-08-11T01:50:57.157Z,15.80
2022-08-11T01:56:09.786Z,15.80
2022-08-11T02:01:26.781Z,15.60
2022-08-11T02:06:51.648Z,15.70
2022-08-11T02:11:59.648Z,15.60
2022-08-11T02:17:17.001Z,15.60
2022-08-11T02:22:44.254Z,15.40
2022-08-11T02:27:54.637Z,15.30
2022-08-11T02:33:24.823Z,15.30
2022-08-11T02:38:35.675Z,15.30
2022-08-11T02:43:50.876Z,15.30
2022-08-11T02:49:27.121Z,15.30
2022-08-11T02:54:44.247Z,15.40
2022-08-11T02:59:53.619Z,15.30
2022-08-11T03:05:08.505Z,15.20
2022-08-11T03:10:14.920Z,13.30
2022-08-11T03:16:00.555Z,15.20
2022-08-11T03:21:07.465Z,15.10
2022-08-11T03:26:15.078Z,15.10
2022-08-11T03:31:25.229Z,15.00
2022-08-11T03:37:36.047Z,15.00
2022-08-11T03:42:47.909Z,14.90
2022-08-11T03:48:05.956Z,14.90
2022-08-11T03:53:17.911Z,14.80
2022-08-11T03:58:41.753Z,14.70
2022-08-11T04:04:04.551Z,14.70
2022-08-11T04:09:34.089Z,14.70
2022-08-11T04:15:17.508Z,14.60
2022-08-11T04:20:31.183Z,14.40
2022-08-11T04:26:18.896Z,14.30
2022-08-11T04:31:44.439Z,14.30
2022-08-11T04:37:34.742Z,14.40
2022-08-11T04:43:25.156Z,14.50
2022-08-11T04:49:27.512Z,14.50
2022-08-11T04:55:22.159Z,14.50
2022-08-11T05:00:45.322Z,14.50
2022-08-11T05:06:09.036Z,14.50
2022-08-11T05:11:45.167Z,14.70
2022-08-11T05:17:10.819Z,14.70
2022-08-11T05:22:32.469Z,14.80
2022-08-11T05:27:56.062Z,14.80
2022-08-11T05:33:19.120Z,14.90
2022-08-11T05:38:41.352Z,15.20
2022-08-11T05:44:21.031Z,15.30
2022-08-11T05:49:44.127Z,15.60
2022-08-11T05:55:06.124Z,15.90
2022-08-11T06:00:11.844Z,16.10
2022-08-11T06:05:16.550Z,16.40
2022-08-11T06:10:30.900Z,16.70
2022-08-11T06:15:35.085Z,17.10
2022-08-11T06:20:47.214Z,17.40
2022-08-11T06:25:51.214Z,17.80
2022-08-11T06:30:54.644Z,18.60
2022-08-11T06:36:04.090Z,19.20
2022-08-11T06:41:32.737Z,19.70
2022-08-11T06:46:39.800Z,20.10
2022-08-11T06:51:48.563Z,20.60
2022-08-11T06:57:29.469Z,21.10
2022-08-11T07:02:35.261Z,21.50
2022-08-11T07:08:34.089Z,21.90
2022-08-11T07:13:57.453Z,22.40
2022-08-11T07:19:20.512Z,22.70
2022-08-11T07:25:01.388Z,22.90
2022-08-11T07:30:09.377Z,23.60
2022-08-11T07:35:14.097Z,23.70
2022-08-11T07:40:20.798Z,24.20
2022-08-11T07:45:45.015Z,24.50
2022-08-11T07:51:05.559Z,24.80
2022-08-11T07:56:17.384Z,25.00
2022-08-11T08:01:45.203Z,25.40
2022-08-11T08:07:06.928Z,25.90
2022-08-11T08:12:27.744Z,26.60
2022-08-11T08:18:20.556Z,26.60
2022-08-11T08:23:15.591Z,27.50
2022-08-11T08:28:19.050Z,27.60
2022-08-11T08:33:25.121Z,28.00
2022-08-11T08:38:29.233Z,28.80
2022-08-11T08:43:48.398Z,29.10
2022-08-11T08:48:56.723Z,29.50
2022-08-11T08:54:02.664Z,30.00
2022-08-11T08:59:08.281Z,30.10
2022-08-11T09:04:17.431Z,30.50
2022-08-11T09:09:29.042Z,30.60
2022-08-11T09:14:51.010Z,31.00
2022-08-11T09:20:05.596Z,32.00
2022-08-11T09:25:29.503Z,31.70
2022-08-11T09:30:36.012Z,31.80
2022-08-11T09:35:49.154Z,32.00
2022-08-11T09:40:56.934Z,32.20
2022-08-11T09:46:00.820Z,32.50
2022-08-11T09:51:20.939Z,32.60
2022-08-11T09:56:43.414Z,33.00
2022-08-11T10:01:50.189Z,33.20
2022-08-11T10:07:07.179Z,32.50
2022-08-11T10:12:18.432Z,33.30
2022-08-11T10:17:22.949Z,32.90
2022-08-11T10:22:46.611Z,32.90
2022-08-11T10:28:28.747Z,33.00
2022-08-11T10:33:37.814Z,33.00
2022-08-11T10:38:52.271Z,33.30
2022-08-11T10:44:03.080Z,33.00
2022-08-11T10:49:10.189Z,33.20
2022-08-11T10:54:36.625Z,33.80
2022-08-11T10:59:42.746Z,33.70
2022-08-11T11:04:56.963Z,33.90
2022-08-11T11:10:05.398Z,33.90
2022-08-11T11:15:30.676Z,33.70
2022-08-11T11:20:39.344Z,33.80
2022-08-11T11:26:27.750Z,33.80
2022-08-11T11:31:36.757Z,33.90
2022-08-11T11:36:46.749Z,33.50
2022-08-11T11:41:55.324Z,34.10
2022-08-11T11:46:59.030Z,33.90
2022-08-11T11:52:08.181Z,34.40
2022-08-11T11:57:42.203Z,33.80
2022-08-11T12:03:02.907Z,33.60
2022-08-11T12:08:14.525Z,35.30
2022-08-11T12:13:37.557Z,35.10
2022-08-11T12:18:42.371Z,34.90
2022-08-11T12:24:06.602Z,35.00
2022-08-11T12:29:12.014Z,35.00
2022-08-11T12:34:16.528Z,35.70
2022-08-11T12:40:16.699Z,34.40
2022-08-11T12:45:28.781Z,35.70
2022-08-11T12:51:25.159Z,35.40
2022-08-11T12:56:46.522Z,34.60
2022-08-11T13:02:09.875Z,36.00
2022-08-11T13:07:16.192Z,35.80
2022-08-11T13:12:36.789Z,35.90
2022-08-11T13:17:45.584Z,35.40
2022-08-11T13:22:51.520Z,36.30
2022-08-11T13:28:01.176Z,37.00
2022-08-11T13:33:07.585Z,36.30
2022-08-11T13:38:27.456Z,35.90
2022-08-11T13:43:30.769Z,35.00
2022-08-11T13:48:36.413Z,35.40
2022-08-11T13:53:39.556Z,36.00
2022-08-11T13:58:43.785Z,36.80
2022-08-11T14:04:29.759Z,35.80
2022-08-11T14:09:31.562Z,36.50
2022-08-11T14:14:35.721Z,36.50
2022-08-11T14:19:42.570Z,37.50
2022-08-11T14:24:49.887Z,36.60
2022-08-11T14:29:54.228Z,35.50
2022-08-11T14:34:58.980Z,36.40
2022-08-11T14:40:24.300Z,36.70
2022-08-11T14:45:57.938Z,36.20
2022-08-11T14:51:09.668Z,36.60
2022-08-11T14:56:30.841Z,37.40
2022-08-11T15:01:54.453Z,37.30
2022-08-11T15:06:59.679Z,36.40
2022-08-11T15:12:32.494Z,36.60
2022-08-11T15:17:42.916Z,37.10
2022-08-11T15:23:25.092Z,37.00
2022-08-11T15:28:53.912Z,36.10
2022-08-11T15:34:19.232Z,37.70
2022-08-11T15:39:26.551Z,36.60
2022-08-11T15:45:06.291Z,36.10
2022-08-11T15:50:13.828Z,36.60
2022-08-11T15:55:24.170Z,36.10
2022-08-11T16:00:44.999Z,35.60
2022-08-11T16:05:53.147Z,35.80
2022-08-11T16:10:57.888Z,35.60
2022-08-11T16:16:17.293Z,35.40
2022-08-11T16:21:26.053Z,35.40
2022-08-11T16:27:08.099Z,35.90
2022-08-11T16:32:23.318Z,35.20
2022-08-11T16:37:59.143Z,35.50
2022-08-11T16:43:21.766Z,35.50
2022-08-11T16:48:36.547Z,36.10
2022-08-11T16:53:54.710Z,36.10
2022-08-11T16:59:15.178Z,34.80
2022-08-11T17:04:43.655Z,34.60
2022-08-11T17:10:04.853Z,34.20
2022-08-11T17:15:47.375Z,33.20
2022-08-11T17:20:55.596Z,33.40
2022-08-11T17:26:04.049Z,33.80
2022-08-11T17:31:27.317Z,33.10
2022-08-11T17:36:30.648Z,33.00
2022-08-11T17:41:51.487Z,33.00
2022-08-11T17:47:14.132Z,33.30
2022-08-11T17:52:36.953Z,33.20
2022-08-11T17:57:58.023Z,31.80
2022-08-11T18:03:20.129Z,31.60
2022-08-11T18:08:41.075Z,31.30
2022-08-11T18:14:01.899Z,30.50
2022-08-11T18:19:24.430Z,30.00
2022-08-11T18:24:48.158Z,29.30
2022-08-11T18:30:09.486Z,28.60
2022-08-11T18:35:31.966Z,28.30
2022-08-11T18:40:54.228Z,28.00
2022-08-11T18:52:06.648Z,27.60
2022-08-11T18:57:27.621Z,27.10
2022-08-11T19:02:53.560Z,25.70
2022-08-11T19:08:17.206Z,24.60
2022-08-11T19:13:42.593Z,23.80
2022-08-11T19:19:04.586Z,23.20
2022-08-11T19:24:27.114Z,23.10
2022-08-11T19:30:05.153Z,23.20
2022-08-11T19:35:28.782Z,23.00
2022-08-11T19:40:51.056Z,22.90
2022-08-11T19:46:12.918Z,22.90
2022-08-11T19:51:35.650Z,22.60
2022-08-11T19:56:57.913Z,22.40
2022-08-11T20:02:18.568Z,22.20
2022-08-11T20:07:41.557Z,22.20
2022-08-11T20:13:05.939Z,22.20
2022-08-11T20:18:28.086Z,22.10
2022-08-11T20:23:48.702Z,21.90
2022-08-11T20:29:14.417Z,21.80
2022-08-11T20:34:36.797Z,21.60
2022-08-11T20:39:58.365Z,21.70
2022-08-11T20:45:23.826Z,21.60
2022-08-11T20:50:46.035Z,21.60
2022-08-11T20:56:07.609Z,21.50
2022-08-11T21:01:38.615Z,21.50
2022-08-11T21:07:02.416Z,21.50
2022-08-11T21:12:23.510Z,21.30
2022-08-11T21:18:00.408Z,21.10
2022-08-11T21:23:29.109Z,20.90
2022-08-11T21:28:50.408Z,20.70
2022-08-11T21:34:15.218Z,20.60
2022-08-11T21:39:38.388Z,20.50
2022-08-11T21:44:59.561Z,20.40
2022-08-11T21:50:25.054Z,20.30
2022-08-11T21:55:47.598Z,20.40
2022-08-11T22:06:59.466Z,19.80
2022-08-11T22:12:29.994Z,19.50
2022-08-11T22:17:58.149Z,19.40
2022-08-11T22:23:23.314Z,19.40
2022-08-11T22:28:43.980Z,19.50
2022-08-11T22:34:09.623Z,19.20
2022-08-11T22:39:35.344Z,19.10
2022-08-11T22:44:56.489Z,19.10
2022-08-11T22:50:21.015Z,19.10
2022-08-11T22:55:44.750Z,19.00
2022-08-11T23:01:05.701Z,19.00
2022-08-11T23:06:27.234Z,18.70
2022-08-11T23:12:07.096Z,18.40
2022-08-11T23:17:34.044Z,18.30
2022-08-11T23:22:55.535Z,18.40
2022-08-11T23:28:18.057Z,18.40
2022-08-11T23:33:39.001Z,18.30
2022-08-11T23:38:59.699Z,18.10
2022-08-11T23:44:24.910Z,18.00
2022-08-11T23:49:47.279Z,17.90
2022-08-11T23:55:08.866Z,17.80
